ADDS METAR Data INFO
IDs: Format: Raw Decoded Include TAF

Data at: 0024 UTC 15 Dec 2017

KBKL 142353Z AUTO 22010KT 10SM FEW037 M06/M11 A3008 RMK AO2 SLP193 60000 T10611106 11028 21061 53021
KBKL 142324Z 24011KT 10SM FEW022 OVC032 M06/M10 A3006 RMK AO2 T10561100
KBKL 142305Z 24010KT 10SM BKN029 OVC034 M04/M10 A3006 RMK AO2 T10441100
KBKL 142253Z 24011KT 10SM OVC031 M05/M10 A3005 RMK AO2 SLP184 T10501100
KBKL 142153Z 24011KT 9SM BKN024 OVC029 M04/M09 A3003 RMK AO2 SNB43E53 SLP175 P0000 T10441094
KBKL 142135Z 27010KT 10SM BKN022 BKN030 OVC036 M04/M09 A3002 RMK AO2 T10441089
KBKL 142053Z 27012KT 10SM SCT023 BKN034 M04/M09 A3001 RMK AO2 SLP170 T10391089 50007
KBKL 142050Z 28012KT 10SM SCT022 BKN034 M04/M09 A3001 RMK AO2
KBKL 141953Z 29010KT 10SM SCT023 BKN029 M04/M09 A3000 RMK AO2 SLP167 T10391094
KBKL 141937Z 29010KT 10SM SCT023 BKN029 BKN035 M03/M09 A3000 RMK AO2 T10331089
KBKL 141853Z 28010KT 10SM FEW026 BKN037 M03/M10 A2999 RMK AO2 SLP164 T10331100
KBKL 141753Z 28008KT 9SM SCT025 OVC035 M04/M09 A2999 RMK AO2 SLP164 60000 T10391089 11033 21044 50014
KBKL 141723Z 29012KT 10SM SCT027 OVC035 M03/M11 A3000 RMK AO2 T10331106
KBKL 141710Z 29011KT 10SM BKN029 OVC036 M03/M09 A3000 RMK AO2 T10331094
KBKL 141653Z 29008KT 10SM SCT026 OVC032 M04/M10 A3001 RMK AO2 SLP169 T10391100
KBKL 141553Z 32008KT 10SM FEW024 OVC033 M04/M09 A2999 RMK AO2 SNE17 SLP163 P0000 T10391094
KBKL 141529Z 31012KT 10SM SCT025 OVC030 M04/M09 A2998 RMK AO2 SNE17 P0000 T10391094
KBKL 141520Z 31012G18KT 10SM BKN025 OVC034 M04/M09 A2997 RMK AO2 SNE17 P0000 T10391094
KBKL 141503Z 32012KT 10SM -SN FEW023 SCT030 OVC037 M04/M09 A2996 RMK AO2 P0000 T10391089
KBKL 141453Z 31013KT 10SM -SN BKN024 BKN028 OVC037 M04/M09 A2995 RMK AO2 SNB43 SLP150 P0000 60000 T10391089 50027
KBKL 141445Z 31011KT 6SM -SN SCT024 BKN030 OVC038 M04/M09 A2995 RMK AO2 SNB43 P0000 T10391089
KBKL 141435Z 31014G18KT 10SM BKN026 OVC032 M04/M10 A2994 RMK AO2 T10391100
KBKL 141353Z 33013KT 10SM SCT026 OVC033 M04/M10 A2992 RMK AO2 SLP138 T10441100
KBKL 141340Z 31012KT 10SM FEW026 BKN032 M04/M11 A2991 RMK AO2 T10441111
KBKL 141328Z 31015KT 10SM BKN026 OVC032 M04/M09 A2991 RMK AO2 PRESRR T10391094
KBKL 141253Z 33013G19KT 10SM OVC034 M04/M10 A2987 RMK AO2 SLP123 T10391100
KBKL 141200Z 36018KT 10SM SCT030 BKN038 M04/M09 A2982 RMK AO2 T10391094
KBKL 141153Z 35016KT 10SM SCT018 OVC025 M04/M09 A2982 RMK AO2 PK WND 36030/1055 SLP106 60001 70013 T10391094 11011 21044 51042
KBKL 141053Z 36020G25KT 10SM FEW018 OVC025 M03/M08 A2976 RMK AO2 PK WND 35026/1012 SNE46 SLP086 P0000 T10331078
KBKL 141000Z 35021KT 2SM -SN BKN017 OVC023 M03/M07 A2970 RMK AO2 PK WND 35026/0956 P0000 T10331067
KBKL 140953Z 35022G30KT 1 1/2SM -SN SCT012 BKN017 OVC025 M03/M06 A2970 RMK AO2 PK WND 35031/0909 SLP063 P0000 T10281061
KBKL 140900Z 35022G29KT 1 1/2SM -SN FEW009 BKN019 OVC025 M02/M04 A2961 RMK AO2 PK WND 35029/0856 P0000 T10171044
KBKL 140853Z 35021G27KT 3/4SM -SN FEW005 BKN017 OVC023 M01/M04 A2961 RMK AO2 PK WND 36027/0851 SLP034 P0001 60001 T10111044 51061
KBKL 140840Z 34010G15KT 2SM -SN BR FEW005 BKN010 OVC022 M02/M04 A2960 RMK AO2 P0001 T10171039
KBKL 140837Z 36009KT 1SM -SN FEW005 BKN015 OVC021 M02/M04 A2960 RMK AO2 P0001 T10171044
KBKL 140835Z 34010KT 3/4SM -SN BR SCT005 BKN012 OVC018 M02/M04 A2960 RMK AO2 P0001 T10221044
KBKL 140828Z 01003KT 1SM -SN BR SCT007 BKN012 OVC027 M03/M06 A2960 RMK AO2 PRESRR P0001 T10331056
KBKL 140753Z 09004KT 8SM -SN SCT010 BKN017 OVC026 M04/M06 A2956 RMK AO2 PRESRR SLP016 P0000 T10391056
KBKL 140727Z 09003KT 6SM -SN BR BKN010 BKN014 OVC024 M04/M06 A2953 RMK AO2 CIG 008V012 PRESRR P0000 T10441061
KBKL 140708Z 08004KT 8SM -SN SCT011 BKN015 OVC075 M04/M06 A2951 RMK AO2 PRESRR P0000 T10441061
KBKL 140653Z 07005KT 6SM -SN BR FEW007 SCT047 OVC075 M04/M07 A2948 RMK AO2 PRESRR SLP991 P0000 T10441067
KBKL 140633Z 05007KT 2SM -SN BR FEW007 BKN039 OVC070 M04/M07 A2946 RMK AO2 P0000 T10441067
KBKL 140623Z 05007KT 2SM -SN BR OVC035 M04/M07 A2945 RMK AO2 P0000 T10441067
KBKL 140611Z 06008KT 2 1/2SM -SN BR OVC025 M05/M07 A2944 RMK AO2 P0000 T10501067
KBKL 140553Z 06010KT 1 1/4SM -SN BR OVC015 M04/M06 A2943 RMK AO2 SLP971 P0002 60011 T10441061 11044 21056 53014
KBKL 140521Z 05012KT 1 1/4SM -SN BR BKN016 OVC024 M04/M06 A2941 RMK AO2 P0001 T10441061
KBKL 140504Z 05008KT 1SM -SN BR BKN012 OVC024 M04/M06 A2940 RMK AO2 P0001 T10441061
KBKL 140453Z 06009KT 3/4SM -SN BR VV011 M04/M06 A2940 RMK AO2 SLP962 P0004 T10441061 410441078
KBKL 140440Z 05007KT 3/4SM -SN BR VV012 M04/M06 A2940 RMK AO2 P0003 T10441061
KBKL 140429Z 06006KT 1SM -SN BR VV013 M04/M06 A2939 RMK AO2 P0002 T10441061
KBKL 140353Z 08003KT 1SM -SN BR OVC019 M04/M07 A2938 RMK AO2 SLP957 P0002 T10441067
KBKL 140314Z 13008KT 1 1/4SM -SN BKN018 OVC026 M04/M07 A2938 RMK AO2 P0001 T10441072
KBKL 140253Z 14008KT 2SM -SN BR OVC024 M05/M07 A2939 RMK AO2 SLP958 P0000 60003 T10501072 56041
KBKL 140242Z 13010KT 1 1/2SM -SN BKN022 OVC033 M05/M08 A2938 RMK AO2 P0000 T10501078
KBKL 140232Z 14010G17KT 2 1/2SM -SN BKN024 OVC035 M05/M08 A2939 RMK AO2 P0000 T10501078
KBKL 140221Z 14010G17KT 5SM -SN SCT024 OVC035 M05/M08 A2939 RMK AO2 P0000 T10501078
KBKL 140214Z 15011G21KT 3SM -SN BKN018 OVC035 M05/M08 A2940 RMK AO2 P0000 T10501078
KBKL 140153Z 15014G20KT 1 1/4SM -SN OVC017 M05/M08 A2941 RMK AO2 SLP966 P0000 T10501078
KBKL 140145Z 15016G21KT 1 1/2SM -SN OVC018 M05/M08 A2941 RMK AO2 P0000 T10501078
KBKL 140128Z 14013G20KT 2SM -SN BR OVC018 M06/M08 A2943 RMK AO2 P0000 T10561078
KBKL 140103Z 15007KT 1SM -SN BR VV011 M06/M08 A2946 RMK AO2 P0000 T10561078
KBKL 140053Z 14008KT 1SM -SN BR VV009 M06/M08 A2947 RMK AO2 SLP987 P0003 T10561078
KBKL 140010Z 16009KT 3/4SM -SN BR VV009 M06/M08 A2950 RMK AO2 P0002 T10561078
KBKL 132353Z 15007KT 3/4SM -SN BR VV011 M06/M08 A2951 RMK AO2 SLP000 P0001 60001 T10561078 11050 21061 56015
KBKL 132341Z 14008KT 1 1/4SM -SN BR OVC012 M06/M08 A2951 RMK AO2 P0001 T10561078
KBKL 132328Z 13007KT 3/4SM -SN VV011 M06/M08 A2951 RMK AO2 P0001 T10561083
KBKL 132316Z 14011KT 1 1/2SM -SN OVC013 M06/M09 A2952 RMK AO2 P0000 T10561089
KBKL 132257Z 15010G18KT 2SM -SN OVC029 M06/M09 A2952 RMK AO2 P0000 T10561094
KBKL 132253Z 15010G18KT 3SM -SN OVC034 M06/M09 A2952 RMK AO2 SNB50 SLP003 P0000 T10561094
KBKL 132153Z 14013G23KT 10SM OVC047 M06/M09 A2949 RMK AO2 SNE21 SLP995 P0000 T10561094
KBKL 132123Z 14013KT 9SM SCT021 OVC045 M06/M09 A2953 RMK AO2 SNE21 P0000 T10561089
KBKL 132116Z 13010G19KT 3SM -SN BKN017 OVC045 M06/M08 A2952 RMK AO2 P0000 T10561083
KBKL 132111Z 14014G20KT 1 1/2SM -SN BKN019 OVC043 M06/M08 A2952 RMK AO2 PRESFR P0000 T10561083
KBKL 132053Z 15008G19KT 1/2SM SN VV016 M06/M08 A2955 RMK AO2 SLP015 P0000 60000 T10561083 56035
KBKL 132051Z 13010G19KT 1/2SM SN VV017 M06/M08 A2955 RMK AO2 PRESFR P0000
KBKL 132040Z 15009KT 1SM -SN VV019 M06/M08 A2957 RMK AO2 PRESFR P0000 T10561083
KBKL 132025Z 16009G18KT 3/4SM -SN VV019 M06/M08 A2959 RMK AO2 P0000 T10561083
KBKL 132014Z 15008KT 1SM -SN FEW020 OVC026 M06/M08 A2959 RMK AO2 P0000 T10561083
KBKL 132003Z 14010KT 1 1/2SM -SN FEW019 BKN030 OVC043 M06/M08 A2959 RMK AO2 PRESFR P0000 T10561083
KBKL 131953Z 16011KT 1 1/2SM -SN SCT018 BKN028 OVC043 M06/M08 A2960 RMK AO2 SLP033 P0000 T10561083
KBKL 131920Z 16008KT 2SM -SN FEW016 OVC026 M06/M08 A2963 RMK AO2 P0000 T10561083
KBKL 131853Z 17008KT 1 1/4SM -SN BKN021 M06/M08 A2966 RMK AO2 SLP051 P0000 T10561083
KBKL 131835Z 18012KT 1 1/2SM -SN FEW016 OVC025 M05/M09 A2967 RMK AO2 P0000 T10501089
KBKL 131753Z 20009KT 2 1/2SM -SN FEW021 BKN026 OVC034 M05/M09 A2971 RMK AO2 SNB11 SLP068 P0000 60000 T10501094 11044 21078 58036
KBKL 131746Z 19013KT 2SM -SN FEW015 SCT020 OVC028 M05/M09 A2972 RMK AO2 SNB11 P0000 T10501089
KBKL 131739Z 20009KT 1 3/4SM -SN FEW016 SCT023 OVC030 M05/M09 A2972 RMK AO2 SNB11 P0000 T10501089
KBKL 131653Z 19011KT 10SM BKN055 OVC070 M04/M11 A2976 RMK AO2 SLP086 T10441106
KBKL 131553Z 20009KT 10SM SCT100 M05/M11 A2979 RMK AO2 SLP097 T10501111
KBKL 131453Z 21012KT 10SM OVC040 M06/M12 A2981 RMK AO2 SNE31 SLP105 P0000 60000 T10611122 58010
KBKL 131413Z 21012KT 9SM -SN BKN032 OVC041 M07/M12 A2983 RMK AO2 P0000 T10671122
KBKL 131353Z 22012KT 6SM -SN BKN025 OVC039 M07/M12 A2983 RMK AO2 SLP112 P0000 T10721122
KBKL 131335Z 21011KT 3SM -SN OVC019 M08/M11 A2983 RMK AO2 P0000 T10781111
KBKL 131300Z 22015KT 1 1/2SM -SN SCT018 OVC026 M08/M11 A2984 RMK AO2 P0000 T10781111
KBKL 131253Z 22015KT 2SM -SN BKN017 BKN026 OVC032 M08/M11 A2984 RMK AO2 SNE09B31 SLP113 P0000 T10781111
KBKL 131242Z 21012KT 6SM -SN BKN017 BKN028 OVC034 M07/M11 A2984 RMK AO2 SNE09B31 P0000 T10721111